createdAt,value
2018-07-25T00:00:08.564Z,7.40
2018-07-25T00:02:37.031Z,8.30
2018-07-25T00:05:06.307Z,7.45
2018-07-25T00:07:34.740Z,7.10
2018-07-25T00:10:03.543Z,7.67
2018-07-25T00:12:32.029Z,6.65
2018-07-25T00:15:06.410Z,6.78
2018-07-25T00:17:35.288Z,7.58
2018-07-25T00:20:04.354Z,7.22
2018-07-25T00:22:32.917Z,7.58
2018-07-25T00:25:02.323Z,7.50
2018-07-25T00:27:30.841Z,7.45
2018-07-25T00:29:59.316Z,7.85
2018-07-25T00:32:27.835Z,8.23
2018-07-25T00:34:56.336Z,7.97
2018-07-25T00:37:24.895Z,8.15
2018-07-25T00:39:53.708Z,8.53
2018-07-25T00:42:22.345Z,7.90
2018-07-25T00:44:50.951Z,7.10
2018-07-25T00:47:19.732Z,8.40
2018-07-25T00:49:48.174Z,7.90
2018-07-25T00:52:16.645Z,7.22
2018-07-25T00:54:45.463Z,7.67
2018-07-25T00:57:14.082Z,8.55
2018-07-25T00:59:42.619Z,8.80
2018-07-25T01:02:11.728Z,9.20
2018-07-25T01:04:40.129Z,8.08
2018-07-25T01:07:09.247Z,9.63
2018-07-25T01:09:37.674Z,9.05
2018-07-25T01:12:06.513Z,9.60
2018-07-25T01:14:34.949Z,9.30
2018-07-25T01:17:03.404Z,9.45
2018-07-25T01:19:32.248Z,9.05
2018-07-25T01:22:03.746Z,9.40
2018-07-25T01:24:32.337Z,9.08
2018-07-25T01:27:01.718Z,9.80
2018-07-25T01:29:30.148Z,10.53
2018-07-25T01:31:58.761Z,10.25
2018-07-25T01:34:27.277Z,8.70
2018-07-25T01:36:55.743Z,8.65
2018-07-25T01:39:24.368Z,9.60
2018-07-25T01:41:52.796Z,9.03
2018-07-25T01:44:21.277Z,9.35
2018-07-25T01:46:50.429Z,11.08
2018-07-25T01:49:18.905Z,11.08
2018-07-25T01:51:47.356Z,10.50
2018-07-25T01:54:15.924Z,10.72
2018-07-25T01:56:44.706Z,10.30
2018-07-25T01:59:13.300Z,9.93
2018-07-25T02:01:42.384Z,10.70
2018-07-25T02:04:10.947Z,9.88
2018-07-25T02:06:39.464Z,10.23
2018-07-25T02:09:09.980Z,11.15
2018-07-25T02:11:38.630Z,10.90
2018-07-25T02:14:07.352Z,10.25
2018-07-25T02:16:36.639Z,10.60
2018-07-25T02:19:05.095Z,11.12
2018-07-25T02:21:33.757Z,11.50
2018-07-25T02:24:02.236Z,11.75
2018-07-25T02:26:30.905Z,11.35
2018-07-25T02:28:59.409Z,10.60
2018-07-25T02:31:27.885Z,10.93
2018-07-25T02:34:01.666Z,10.35
2018-07-25T02:36:30.112Z,11.95
2018-07-25T02:38:59.569Z,10.80
2018-07-25T02:41:28.206Z,11.78
2018-07-25T02:43:57.420Z,11.68
2018-07-25T02:46:26.016Z,11.50
2018-07-25T02:48:54.627Z,12.00
2018-07-25T02:51:23.106Z,10.65
2018-07-25T02:53:52.554Z,10.65
2018-07-25T02:56:21.110Z,11.22
2018-07-25T02:58:50.314Z,11.38
2018-07-25T03:01:18.948Z,10.65
2018-07-25T03:03:52.545Z,11.38
2018-07-25T03:06:20.981Z,9.50
2018-07-25T03:08:50.469Z,10.90
2018-07-25T03:11:19.025Z,9.75
2018-07-25T03:13:47.593Z,11.12
2018-07-25T03:16:16.308Z,10.63
2018-07-25T03:18:45.358Z,10.78
2018-07-25T03:21:13.885Z,10.03
2018-07-25T03:23:42.650Z,9.30
2018-07-25T03:26:11.321Z,10.95
2018-07-25T03:28:40.123Z,11.08
2018-07-25T03:31:08.965Z,10.35
2018-07-25T03:33:37.817Z,10.50
2018-07-25T03:36:06.676Z,10.82
2018-07-25T03:38:36.131Z,10.60
2018-07-25T03:41:05.065Z,10.03
2018-07-25T03:43:33.898Z,10.28
2018-07-25T03:46:03.018Z,10.93
2018-07-25T03:48:31.540Z,10.28
2018-07-25T03:51:01.046Z,11.35
2018-07-25T03:53:30.116Z,11.22
2018-07-25T03:55:59.048Z,10.60
2018-07-25T03:58:27.979Z,9.98
2018-07-25T04:00:56.696Z,11.33
2018-07-25T04:03:25.602Z,10.03
2018-07-25T04:05:55.413Z,10.48
2018-07-25T04:08:25.036Z,10.65
2018-07-25T04:10:54.012Z,11.38
2018-07-25T04:13:24.116Z,10.85
2018-07-25T04:15:53.504Z,11.12
2018-07-25T04:18:23.148Z,11.60
2018-07-25T04:20:53.865Z,11.33
2018-07-25T04:23:22.935Z,10.72
2018-07-25T04:25:52.573Z,11.22
2018-07-25T04:28:21.436Z,12.35
2018-07-25T04:30:50.590Z,12.65
2018-07-25T04:33:19.633Z,12.55
2018-07-25T04:35:48.944Z,12.53
2018-07-25T04:38:17.916Z,11.88
2018-07-25T04:40:46.611Z,12.07
2018-07-25T04:43:15.422Z,11.48
2018-07-25T04:45:44.131Z,12.05
2018-07-25T04:48:12.889Z,12.63
2018-07-25T04:50:41.557Z,13.10
2018-07-25T04:53:10.430Z,13.03
2018-07-25T04:55:39.470Z,12.85
2018-07-25T04:58:08.681Z,12.15
2018-07-25T05:00:37.508Z,13.08
2018-07-25T05:03:08.017Z,11.48
2018-07-25T05:05:36.780Z,12.18
2018-07-25T05:16:54.069Z,12.80
2018-07-25T05:19:23.034Z,11.40
2018-07-25T05:21:51.833Z,11.70
2018-07-25T05:24:20.629Z,12.65
2018-07-25T05:26:49.541Z,12.70
2018-07-25T05:29:18.519Z,13.75
2018-07-25T05:31:47.296Z,12.82
2018-07-25T05:34:16.106Z,13.90
2018-07-25T05:36:45.241Z,12.15
2018-07-25T05:39:14.515Z,13.20
2018-07-25T05:41:43.601Z,12.00
2018-07-25T05:44:12.441Z,14.00
2018-07-25T05:46:41.414Z,12.40
2018-07-25T05:49:10.056Z,13.62
2018-07-25T05:51:39.829Z,12.88
2018-07-25T05:54:08.637Z,14.45
2018-07-25T05:56:37.562Z,12.82
2018-07-25T05:59:06.912Z,11.85
2018-07-25T06:01:35.843Z,12.30
2018-07-25T06:04:04.638Z,11.97
2018-07-25T06:06:33.361Z,15.60
2018-07-25T06:09:02.481Z,12.80
2018-07-25T06:11:31.313Z,14.78
2018-07-25T06:14:00.504Z,14.73
2018-07-25T06:16:29.443Z,15.48
2018-07-25T06:18:58.075Z,14.55
2018-07-25T06:21:27.498Z,15.45
2018-07-25T06:23:56.509Z,12.30
2018-07-25T06:26:25.360Z,15.70
2018-07-25T06:28:54.358Z,15.95
2018-07-25T06:31:23.523Z,14.53
2018-07-25T06:33:52.415Z,14.35
2018-07-25T06:36:21.266Z,16.00
2018-07-25T06:38:50.364Z,15.72
2018-07-25T06:41:19.345Z,13.62
2018-07-25T06:43:48.239Z,15.30
2018-07-25T06:46:17.172Z,14.58
2018-07-25T06:48:46.794Z,14.80
2018-07-25T06:51:15.600Z,14.38
2018-07-25T06:53:44.454Z,14.98
2018-07-25T06:56:13.284Z,13.40
2018-07-25T06:58:41.924Z,14.20
2018-07-25T07:01:11.076Z,12.00
2018-07-25T07:03:40.302Z,12.35
2018-07-25T07:06:09.166Z,11.28
2018-07-25T07:08:37.930Z,13.90
2018-07-25T07:11:06.737Z,13.05
2018-07-25T07:13:35.804Z,12.53
2018-07-25T07:16:04.726Z,12.58
2018-07-25T07:18:33.413Z,12.20
2018-07-25T07:21:02.457Z,12.60
2018-07-25T07:23:31.407Z,12.90
2018-07-25T07:26:00.070Z,14.05
2018-07-25T07:28:29.543Z,11.57
2018-07-25T07:30:59.260Z,11.33
2018-07-25T07:33:28.251Z,9.70
2018-07-25T07:35:57.123Z,12.35
2018-07-25T07:38:26.348Z,11.70
2018-07-25T07:40:55.217Z,10.93
2018-07-25T07:43:24.157Z,11.30
2018-07-25T07:45:53.302Z,13.17
2018-07-25T07:48:22.754Z,11.55
2018-07-25T07:50:51.729Z,12.58
2018-07-25T07:53:27.703Z,12.88
2018-07-25T07:55:56.437Z,10.72
2018-07-25T07:58:25.071Z,11.45
2018-07-25T08:00:53.951Z,10.85
2018-07-25T08:03:23.082Z,10.75
2018-07-25T08:05:52.460Z,11.00
2018-07-25T08:08:21.873Z,10.60
2018-07-25T08:10:51.455Z,13.40
2018-07-25T08:13:20.366Z,12.03
2018-07-25T08:15:49.425Z,12.30
2018-07-25T08:18:18.063Z,11.12
2018-07-25T08:20:48.236Z,11.70
2018-07-25T08:23:17.549Z,12.43
2018-07-25T08:25:46.419Z,11.68
2018-07-25T08:28:15.390Z,12.63
2018-07-25T08:30:44.515Z,10.93
2018-07-25T08:33:14.011Z,12.15
2018-07-25T08:35:43.317Z,11.43
2018-07-25T08:38:12.280Z,11.50
2018-07-25T08:40:41.367Z,10.95
2018-07-25T08:43:10.269Z,9.68
2018-07-25T08:45:39.702Z,10.28
2018-07-25T08:48:09.448Z,11.50
2018-07-25T08:50:38.852Z,9.33
2018-07-25T08:53:08.735Z,9.30
2018-07-25T08:55:37.581Z,10.10
2018-07-25T08:58:07.185Z,9.58
2018-07-25T09:00:39.032Z,9.58
2018-07-25T09:03:08.697Z,8.60
2018-07-25T09:05:37.709Z,8.58
2018-07-25T09:08:07.158Z,7.50
2018-07-25T09:10:36.419Z,8.25
2018-07-25T09:13:05.865Z,8.40
2018-07-25T09:15:35.371Z,8.05
2018-07-25T09:18:04.529Z,7.83
2018-07-25T09:20:33.192Z,7.00
2018-07-25T09:23:02.174Z,7.20
2018-07-25T09:25:31.506Z,7.45
2018-07-25T09:28:00.428Z,7.78
2018-07-25T09:30:29.571Z,7.50
2018-07-25T09:32:58.828Z,7.50
2018-07-25T09:35:27.456Z,8.10
2018-07-25T09:37:56.304Z,6.30
2018-07-25T09:40:25.470Z,6.97
2018-07-25T09:42:54.217Z,7.20
2018-07-25T09:45:24.040Z,6.10
2018-07-25T09:47:52.938Z,6.90
2018-07-25T09:50:22.060Z,6.50
2018-07-25T09:52:51.528Z,6.25
2018-07-25T09:55:20.549Z,7.07
2018-07-25T09:57:49.606Z,5.87
2018-07-25T10:00:24.482Z,6.47
2018-07-25T10:02:53.825Z,6.83
2018-07-25T10:05:23.844Z,6.93
2018-07-25T10:07:52.825Z,5.42
2018-07-25T10:10:21.802Z,6.23
2018-07-25T10:12:51.200Z,5.92
2018-07-25T10:15:20.811Z,6.35
2018-07-25T10:17:49.826Z,4.80
2018-07-25T10:20:18.931Z,5.43
2018-07-25T10:22:48.366Z,6.45
2018-07-25T10:25:18.218Z,5.67
2018-07-25T10:27:47.109Z,5.83
2018-07-25T10:30:16.625Z,5.63
2018-07-25T10:32:45.625Z,4.55
2018-07-25T10:35:15.030Z,6.07
2018-07-25T10:37:44.295Z,6.12
2018-07-25T10:40:13.226Z,6.35
2018-07-25T10:42:42.681Z,6.35
2018-07-25T10:45:11.723Z,6.10
2018-07-25T10:47:41.813Z,5.58
2018-07-25T10:50:11.041Z,5.33
2018-07-25T10:52:40.109Z,5.45
2018-07-25T10:55:09.037Z,5.55
2018-07-25T10:57:37.956Z,5.85
2018-07-25T11:00:07.944Z,5.47
2018-07-25T11:02:37.048Z,6.08
2018-07-25T11:05:06.574Z,5.28
2018-07-25T11:07:35.706Z,5.65
2018-07-25T11:10:05.215Z,6.33
2018-07-25T11:12:34.388Z,5.60
2018-07-25T11:15:03.708Z,5.50
2018-07-25T11:17:32.706Z,5.03
2018-07-25T11:20:01.767Z,4.85
2018-07-25T11:22:31.453Z,5.35
2018-07-25T11:25:00.484Z,5.40
2018-07-25T11:27:29.459Z,5.78
2018-07-25T11:29:58.658Z,4.78
2018-07-25T11:32:27.868Z,5.62
2018-07-25T11:34:57.408Z,4.80
2018-07-25T11:57:26.939Z,5.20
2018-07-25T11:59:56.005Z,4.80
2018-07-25T12:02:31.234Z,4.83
2018-07-25T12:05:06.076Z,4.72
2018-07-25T12:07:35.471Z,4.62
2018-07-25T12:10:04.890Z,5.35
2018-07-25T12:12:33.757Z,4.70
2018-07-25T12:15:02.956Z,5.10
2018-07-25T12:17:32.336Z,5.55
2018-07-25T12:20:02.145Z,4.58
2018-07-25T12:22:31.539Z,4.85
2018-07-25T12:25:00.800Z,5.28
2018-07-25T12:27:30.590Z,4.75
2018-07-25T12:30:00.240Z,4.90
2018-07-25T12:32:29.316Z,5.03
2018-07-25T12:34:58.310Z,4.70
2018-07-25T12:37:31.271Z,4.80
2018-07-25T12:40:00.372Z,5.00
2018-07-25T12:42:29.516Z,4.95
2018-07-25T12:45:01.552Z,4.33
2018-07-25T12:47:31.029Z,4.22
2018-07-25T12:50:00.249Z,4.33
2018-07-25T12:52:29.292Z,4.05
2018-07-25T12:54:58.465Z,4.25
2018-07-25T12:57:27.230Z,4.55
2018-07-25T12:59:56.712Z,4.10
2018-07-25T13:02:26.101Z,4.37
2018-07-25T13:04:55.224Z,4.50
2018-07-25T13:07:24.112Z,4.12
2018-07-25T13:09:53.156Z,4.28
2018-07-25T13:12:21.800Z,4.80
2018-07-25T13:14:50.796Z,4.80
2018-07-25T13:17:19.913Z,4.05
2018-07-25T13:19:49.007Z,4.70
2018-07-25T13:22:18.247Z,4.95
2018-07-25T13:24:47.338Z,5.10
2018-07-25T13:27:16.335Z,4.62
2018-07-25T13:29:45.490Z,4.67
2018-07-25T13:32:14.353Z,4.70
2018-07-25T13:34:43.213Z,4.85
2018-07-25T13:37:12.133Z,4.50
2018-07-25T13:39:41.069Z,4.53
2018-07-25T13:42:10.257Z,4.55
2018-07-25T13:44:39.288Z,4.35
2018-07-25T13:47:08.133Z,4.63
2018-07-25T13:49:37.361Z,4.87
2018-07-25T13:52:08.140Z,4.50
2018-07-25T13:54:37.664Z,4.55
2018-07-25T13:57:06.404Z,4.80
2018-07-25T13:59:35.026Z,4.80
2018-07-25T14:02:04.076Z,4.60
2018-07-25T14:04:33.242Z,4.60
2018-07-25T14:07:02.326Z,4.28
2018-07-25T14:09:31.207Z,4.53
2018-07-25T14:12:00.158Z,4.75
2018-07-25T14:14:28.850Z,4.70
2018-07-25T14:16:57.879Z,4.70
2018-07-25T14:19:27.697Z,3.87
2018-07-25T14:21:56.998Z,4.80
2018-07-25T14:24:26.041Z,4.62
2018-07-25T14:26:55.514Z,4.67
2018-07-25T14:29:24.660Z,4.30
2018-07-25T14:31:53.954Z,4.73
2018-07-25T14:34:22.713Z,6.10
2018-07-25T14:36:51.575Z,4.83
2018-07-25T14:39:20.466Z,4.80
2018-07-25T14:41:49.579Z,4.60
2018-07-25T14:44:18.463Z,4.70
2018-07-25T14:46:47.356Z,4.87
2018-07-25T14:49:16.182Z,4.60
2018-07-25T14:51:44.935Z,4.70
2018-07-25T14:54:14.120Z,5.10
2018-07-25T14:56:42.987Z,5.60
2018-07-25T14:59:12.297Z,5.60
2018-07-25T15:01:41.419Z,5.85
2018-07-25T15:04:10.400Z,6.03
2018-07-25T15:06:39.494Z,6.10
2018-07-25T15:09:10.068Z,7.10
2018-07-25T15:11:39.653Z,6.30
2018-07-25T15:14:09.089Z,6.08
2018-07-25T15:16:38.247Z,5.78
2018-07-25T15:19:07.255Z,5.40
2018-07-25T15:21:36.142Z,5.40
2018-07-25T15:24:06.555Z,5.20
2018-07-25T15:26:35.640Z,5.35
2018-07-25T15:29:04.692Z,5.03
2018-07-25T15:31:33.254Z,5.20
2018-07-25T15:34:04.387Z,5.03
2018-07-25T15:36:53.094Z,4.70
2018-07-25T15:39:24.228Z,4.47
2018-07-25T15:41:54.176Z,4.08
2018-07-25T15:44:24.081Z,4.55
2018-07-25T15:46:53.400Z,4.67
2018-07-25T15:49:22.682Z,4.42
2018-07-25T15:51:51.827Z,3.67
2018-07-25T15:54:20.938Z,5.50
2018-07-25T15:56:49.771Z,4.37
2018-07-25T15:59:19.335Z,4.97
2018-07-25T16:01:48.164Z,4.70
2018-07-25T16:04:17.077Z,4.97
2018-07-25T16:06:46.327Z,4.50
2018-07-25T16:09:15.747Z,5.08
2018-07-25T16:11:45.302Z,5.58
2018-07-25T16:14:14.617Z,4.80
2018-07-25T16:16:43.698Z,5.72
2018-07-25T16:19:13.091Z,5.72
2018-07-25T16:21:42.011Z,5.67
2018-07-25T16:24:11.047Z,4.90
2018-07-25T16:26:41.084Z,4.87
2018-07-25T16:29:10.258Z,5.35
2018-07-25T16:31:39.144Z,5.13
2018-07-25T16:34:08.335Z,5.10
2018-07-25T16:36:37.310Z,4.85
2018-07-25T16:39:16.204Z,4.78
2018-07-25T16:41:45.015Z,5.08
2018-07-25T16:44:14.249Z,5.15
2018-07-25T16:46:43.206Z,4.80
2018-07-25T16:49:12.132Z,4.60
2018-07-25T16:51:41.225Z,4.75
2018-07-25T16:54:10.325Z,5.22
2018-07-25T16:56:39.504Z,5.03
2018-07-25T16:59:08.653Z,4.92
2018-07-25T17:01:37.630Z,5.37
2018-07-25T17:04:06.687Z,5.10
2018-07-25T17:06:42.391Z,5.83
2018-07-25T17:09:12.331Z,5.47
2018-07-25T17:11:41.444Z,5.20
2018-07-25T17:14:10.271Z,5.62
2018-07-25T17:16:39.104Z,5.30
2018-07-25T17:19:08.059Z,5.72
2018-07-25T17:21:37.009Z,5.47
2018-07-25T17:24:05.898Z,5.60
2018-07-25T17:26:34.549Z,5.83
2018-07-25T17:29:08.274Z,5.15
2018-07-25T17:31:37.079Z,5.37
2018-07-25T17:34:06.108Z,5.42
2018-07-25T17:36:34.917Z,5.00
2018-07-25T17:39:03.952Z,4.37
2018-07-25T17:41:32.961Z,5.47
2018-07-25T17:44:01.689Z,5.03
2018-07-25T17:46:30.897Z,5.15
2018-07-25T17:48:59.849Z,5.87
2018-07-25T17:51:28.927Z,5.20
2018-07-25T17:53:58.069Z,5.03
2018-07-25T17:56:27.189Z,5.22
2018-07-25T17:58:56.194Z,6.05
2018-07-25T18:01:25.130Z,4.90
2018-07-25T18:03:53.951Z,5.35
2018-07-25T18:06:23.091Z,5.58
2018-07-25T18:08:51.847Z,5.15
2018-07-25T18:11:21.244Z,5.15
2018-07-25T18:13:55.582Z,5.00
2018-07-25T18:16:25.125Z,5.55
2018-07-25T18:18:55.261Z,4.90
2018-07-25T18:21:24.330Z,5.45
2018-07-25T18:23:59.479Z,5.45
2018-07-25T18:26:29.316Z,5.20
2018-07-25T18:28:58.830Z,4.95
2018-07-25T18:31:28.497Z,5.58
2018-07-25T18:33:57.855Z,5.00
2018-07-25T18:36:26.764Z,5.95
2018-07-25T18:38:56.094Z,5.62
2018-07-25T18:41:25.676Z,5.80
2018-07-25T18:43:55.217Z,5.40
2018-07-25T18:46:24.723Z,5.40
2018-07-25T18:48:54.545Z,5.55
2018-07-25T20:03:17.728Z,7.58
2018-07-25T20:05:46.929Z,6.58
2018-07-25T20:08:15.904Z,7.50
2018-07-25T20:10:44.998Z,7.50
2018-07-25T20:13:14.777Z,6.70
2018-07-25T20:15:49.297Z,7.50
2018-07-25T20:18:19.046Z,6.65
2018-07-25T20:20:49.002Z,7.60
2018-07-25T20:23:18.100Z,7.33
2018-07-25T20:25:47.511Z,6.17
2018-07-25T20:28:16.795Z,6.33
2018-07-25T20:30:46.609Z,6.78
2018-07-25T20:33:16.070Z,6.85
2018-07-25T20:35:45.410Z,6.37
2018-07-25T20:38:14.293Z,6.50
2018-07-25T20:40:42.812Z,6.47
2018-07-25T20:43:11.564Z,6.47
2018-07-25T20:45:40.794Z,7.03
2018-07-25T20:48:09.626Z,6.87
2018-07-25T20:50:39.060Z,6.25
2018-07-25T20:53:08.124Z,6.20
2018-07-25T20:55:37.420Z,6.40
2018-07-25T20:58:06.308Z,5.87
2018-07-25T21:00:36.137Z,6.22
2018-07-25T21:03:06.533Z,6.53
2018-07-25T21:05:35.654Z,5.87
2018-07-25T21:08:04.402Z,7.10
2018-07-25T21:10:33.405Z,6.47
2018-07-25T21:13:02.200Z,6.22
2018-07-25T21:15:31.157Z,6.67
2018-07-25T21:17:59.925Z,7.28
2018-07-25T21:20:28.469Z,6.20
2018-07-25T21:22:57.075Z,6.45
2018-07-25T21:25:26.056Z,6.35
2018-07-25T21:27:54.887Z,6.28
2018-07-25T21:30:23.660Z,6.37
2018-07-25T21:32:52.231Z,6.17
2018-07-25T21:35:20.911Z,6.60
2018-07-25T21:37:49.472Z,7.75
2018-07-25T21:40:18.038Z,7.97
2018-07-25T21:42:46.689Z,8.60
2018-07-25T21:45:15.161Z,9.33
2018-07-25T21:47:43.698Z,10.08
2018-07-25T21:50:12.221Z,8.40
2018-07-25T21:52:40.799Z,8.60
2018-07-25T21:55:09.217Z,7.58
2018-07-25T21:57:38.002Z,7.42
2018-07-25T22:00:13.439Z,6.90
2018-07-25T22:02:42.382Z,7.05
2018-07-25T22:05:11.268Z,6.92
2018-07-25T22:07:39.855Z,6.53
2018-07-25T22:10:08.948Z,5.87
2018-07-25T22:12:38.205Z,6.33
2018-07-25T22:15:07.722Z,5.92
2018-07-25T22:17:36.425Z,6.03
2018-07-25T22:20:06.530Z,6.58
2018-07-25T22:22:35.028Z,6.15
2018-07-25T22:25:03.799Z,6.65
2018-07-25T22:27:32.522Z,5.92
2018-07-25T22:30:07.685Z,7.87
2018-07-25T22:32:36.755Z,9.75
2018-07-25T22:35:05.768Z,9.15
2018-07-25T22:37:34.453Z,8.60
2018-07-25T22:40:04.097Z,8.50
2018-07-25T22:42:32.799Z,8.20
2018-07-25T22:45:01.413Z,7.50
2018-07-25T22:47:29.978Z,7.58
2018-07-25T22:50:02.691Z,8.15
2018-07-25T22:52:31.273Z,7.40
2018-07-25T22:54:59.793Z,6.85
2018-07-25T22:57:28.471Z,6.75
2018-07-25T22:59:57.225Z,6.72
2018-07-25T23:02:25.829Z,5.80
2018-07-25T23:04:54.395Z,6.40
2018-07-25T23:07:23.752Z,6.20
2018-07-25T23:09:53.459Z,6.60
2018-07-25T23:12:22.045Z,6.62
2018-07-25T23:14:50.584Z,7.03
2018-07-25T23:17:19.040Z,6.17
2018-07-25T23:19:47.683Z,6.28
2018-07-25T23:22:16.724Z,5.93
2018-07-25T23:24:45.176Z,6.10
2018-07-25T23:27:13.834Z,6.37
2018-07-25T23:29:42.457Z,6.17
2018-07-25T23:32:11.131Z,6.12
2018-07-25T23:34:39.901Z,5.85
2018-07-25T23:37:08.409Z,5.95
2018-07-25T23:39:37.675Z,6.28
2018-07-25T23:42:06.141Z,6.62
2018-07-25T23:44:34.803Z,6.42
2018-07-25T23:47:03.376Z,6.25
2018-07-25T23:49:32.043Z,6.78
2018-07-25T23:52:00.777Z,6.28
2018-07-25T23:54:29.664Z,6.87
2018-07-25T23:56:58.610Z,6.80
2018-07-25T23:59:27.250Z,6.37
